sensor_id;sensor_type;location;lat;lon;timestamp;temperature;humidity
27559;DHT22;15002;52.028;5.670;2022-08-06T00:01:49;17.60;92.70
27559;DHT22;15002;52.028;5.670;2022-08-06T00:04:15;17.60;92.80
27559;DHT22;15002;52.028;5.670;2022-08-06T00:06:41;17.60;92.80
27559;DHT22;15002;52.028;5.670;2022-08-06T00:09:07;17.60;92.90
27559;DHT22;15002;52.028;5.670;2022-08-06T00:11:32;17.60;93.00
27559;DHT22;15002;52.028;5.670;2022-08-06T00:13:58;17.60;92.80
27559;DHT22;15002;52.028;5.670;2022-08-06T00:16:25;17.40;93.00
27559;DHT22;15002;52.028;5.670;2022-08-06T00:18:51;17.50;93.10
27559;DHT22;15002;52.028;5.670;2022-08-06T00:21:16;17.30;93.20
27559;DHT22;15002;52.028;5.670;2022-08-06T00:23:43;17.30;93.40
27559;DHT22;15002;52.028;5.670;2022-08-06T00:26:08;17.30;93.40
27559;DHT22;15002;52.028;5.670;2022-08-06T00:28:34;17.30;93.50
27559;DHT22;15002;52.028;5.670;2022-08-06T00:31:01;17.20;93.60
27559;DHT22;15002;52.028;5.670;2022-08-06T00:33:28;17.20;93.70
27559;DHT22;15002;52.028;5.670;2022-08-06T00:35:54;17.20;93.90
27559;DHT22;15002;52.028;5.670;2022-08-06T00:38:19;17.10;93.80
27559;DHT22;15002;52.028;5.670;2022-08-06T00:40:45;17.00;94.10
27559;DHT22;15002;52.028;5.670;2022-08-06T00:43:12;16.90;94.20
27559;DHT22;15002;52.028;5.670;2022-08-06T00:45:38;16.90;94.50
27559;DHT22;15002;52.028;5.670;2022-08-06T00:48:03;17.00;94.20
27559;DHT22;15002;52.028;5.670;2022-08-06T00:50:30;17.00;94.20
27559;DHT22;15002;52.028;5.670;2022-08-06T00:52:56;17.00;94.10
27559;DHT22;15002;52.028;5.670;2022-08-06T00:55:22;16.90;94.20
27559;DHT22;15002;52.028;5.670;2022-08-06T00:57:47;16.80;94.60
27559;DHT22;15002;52.028;5.670;2022-08-06T01:00:13;16.70;94.60
27559;DHT22;15002;52.028;5.670;2022-08-06T01:02:39;16.70;94.70
27559;DHT22;15002;52.028;5.670;2022-08-06T01:05:05;16.70;94.90
27559;DHT22;15002;52.028;5.670;2022-08-06T01:07:31;16.70;94.90
27559;DHT22;15002;52.028;5.670;2022-08-06T01:09:57;16.70;94.80
27559;DHT22;15002;52.028;5.670;2022-08-06T01:12:22;16.70;94.90
27559;DHT22;15002;52.028;5.670;2022-08-06T01:14:48;16.70;94.90
27559;DHT22;15002;52.028;5.670;2022-08-06T01:19:53;16.60;95.00
27559;DHT22;15002;52.028;5.670;2022-08-06T01:22:54;16.60;95.10
27559;DHT22;15002;52.028;5.670;2022-08-06T01:28:16;16.50;95.60
27559;DHT22;15002;52.028;5.670;2022-08-06T01:30:49;16.50;95.40
27559;DHT22;15002;52.028;5.670;2022-08-06T01:33:39;16.50;95.50
27559;DHT22;15002;52.028;5.670;2022-08-06T01:36:09;16.50;95.50
27559;DHT22;15002;52.028;5.670;2022-08-06T01:38:47;16.40;95.50
27559;DHT22;15002;52.028;5.670;2022-08-06T01:41:17;16.40;95.70
27559;DHT22;15002;52.028;5.670;2022-08-06T01:44:27;16.30;95.80
27559;DHT22;15002;52.028;5.670;2022-08-06T01:46:57;16.20;96.00
27559;DHT22;15002;52.028;5.670;2022-08-06T01:49:26;16.20;96.00
27559;DHT22;15002;52.028;5.670;2022-08-06T01:51:55;16.20;96.00
27559;DHT22;15002;52.028;5.670;2022-08-06T01:54:23;16.20;96.00
27559;DHT22;15002;52.028;5.670;2022-08-06T01:56:51;16.30;96.00
27559;DHT22;15002;52.028;5.670;2022-08-06T01:59:21;16.20;96.00
27559;DHT22;15002;52.028;5.670;2022-08-06T02:01:52;16.30;96.10
27559;DHT22;15002;52.028;5.670;2022-08-06T02:04:19;16.30;96.00
27559;DHT22;15002;52.028;5.670;2022-08-06T02:06:47;16.20;96.10
27559;DHT22;15002;52.028;5.670;2022-08-06T02:09:17;16.20;96.10
27559;DHT22;15002;52.028;5.670;2022-08-06T02:11:48;16.30;96.10
27559;DHT22;15002;52.028;5.670;2022-08-06T02:14:16;16.30;96.20
27559;DHT22;15002;52.028;5.670;2022-08-06T02:16:43;16.30;96.30
27559;DHT22;15002;52.028;5.670;2022-08-06T02:19:12;16.30;96.20
27559;DHT22;15002;52.028;5.670;2022-08-06T02:21:40;16.30;96.30
27559;DHT22;15002;52.028;5.670;2022-08-06T02:24:08;16.20;96.30
27559;DHT22;15002;52.028;5.670;2022-08-06T02:26:35;16.30;96.30
27559;DHT22;15002;52.028;5.670;2022-08-06T02:29:04;16.20;96.20
27559;DHT22;15002;52.028;5.670;2022-08-06T02:31:31;16.20;96.50
27559;DHT22;15002;52.028;5.670;2022-08-06T02:33:57;16.10;96.60
27559;DHT22;15002;52.028;5.670;2022-08-06T02:36:23;16.10;96.60
27559;DHT22;15002;52.028;5.670;2022-08-06T02:38:58;16.20;96.60
27559;DHT22;15002;52.028;5.670;2022-08-06T02:41:38;16.10;96.70
27559;DHT22;15002;52.028;5.670;2022-08-06T02:44:15;16.10;96.90
27559;DHT22;15002;52.028;5.670;2022-08-06T02:46:51;16.20;96.80
27559;DHT22;15002;52.028;5.670;2022-08-06T02:49:22;16.20;96.80
27559;DHT22;15002;52.028;5.670;2022-08-06T02:52:00;16.20;96.70
27559;DHT22;15002;52.028;5.670;2022-08-06T02:54:38;16.20;96.60
27559;DHT22;15002;52.028;5.670;2022-08-06T02:57:06;16.20;96.70
27559;DHT22;15002;52.028;5.670;2022-08-06T02:59:38;16.10;96.70
27559;DHT22;15002;52.028;5.670;2022-08-06T03:02:08;16.00;97.00
27559;DHT22;15002;52.028;5.670;2022-08-06T03:04:36;16.00;97.10
27559;DHT22;15002;52.028;5.670;2022-08-06T03:07:07;16.00;97.10
27559;DHT22;15002;52.028;5.670;2022-08-06T03:09:35;16.00;97.10
27559;DHT22;15002;52.028;5.670;2022-08-06T03:12:02;16.00;97.30
27559;DHT22;15002;52.028;5.670;2022-08-06T03:14:28;16.00;97.20
27559;DHT22;15002;52.028;5.670;2022-08-06T03:16:56;16.10;97.20
27559;DHT22;15002;52.028;5.670;2022-08-06T03:19:23;16.10;97.10
27559;DHT22;15002;52.028;5.670;2022-08-06T03:21:51;16.00;97.40
27559;DHT22;15002;52.028;5.670;2022-08-06T03:24:18;16.10;97.20
27559;DHT22;15002;52.028;5.670;2022-08-06T03:26:45;16.10;96.90
27559;DHT22;15002;52.028;5.670;2022-08-06T03:29:12;16.10;97.00
27559;DHT22;15002;52.028;5.670;2022-08-06T03:31:38;16.00;97.10
27559;DHT22;15002;52.028;5.670;2022-08-06T03:34:05;15.90;97.20
27559;DHT22;15002;52.028;5.670;2022-08-06T03:36:32;15.80;97.60
27559;DHT22;15002;52.028;5.670;2022-08-06T03:39:03;15.60;97.90
27559;DHT22;15002;52.028;5.670;2022-08-06T03:41:30;15.70;97.80
27559;DHT22;15002;52.028;5.670;2022-08-06T03:43:57;15.70;97.90
27559;DHT22;15002;52.028;5.670;2022-08-06T03:46:48;15.70;98.00
27559;DHT22;15002;52.028;5.670;2022-08-06T03:49:29;15.80;98.00
27559;DHT22;15002;52.028;5.670;2022-08-06T03:51:58;15.70;98.00
27559;DHT22;15002;52.028;5.670;2022-08-06T03:54:28;15.70;98.00
27559;DHT22;15002;52.028;5.670;2022-08-06T03:57:00;15.70;98.00
27559;DHT22;15002;52.028;5.670;2022-08-06T03:59:28;15.70;97.90
27559;DHT22;15002;52.028;5.670;2022-08-06T04:01:56;15.70;97.80
27559;DHT22;15002;52.028;5.670;2022-08-06T04:04:24;15.70;98.20
27559;DHT22;15002;52.028;5.670;2022-08-06T04:06:52;15.60;98.00
27559;DHT22;15002;52.028;5.670;2022-08-06T04:09:18;15.60;98.10
27559;DHT22;15002;52.028;5.670;2022-08-06T04:11:45;15.70;98.20
27559;DHT22;15002;52.028;5.670;2022-08-06T04:14:12;15.60;98.20
27559;DHT22;15002;52.028;5.670;2022-08-06T04:16:39;15.60;98.30
27559;DHT22;15002;52.028;5.670;2022-08-06T04:19:06;15.60;98.20
27559;DHT22;15002;52.028;5.670;2022-08-06T04:21:33;15.60;98.30
27559;DHT22;15002;52.028;5.670;2022-08-06T04:23:58;15.70;98.30
27559;DHT22;15002;52.028;5.670;2022-08-06T04:26:25;15.70;98.10
27559;DHT22;15002;52.028;5.670;2022-08-06T04:28:55;15.70;98.10
27559;DHT22;15002;52.028;5.670;2022-08-06T04:31:22;15.70;98.00
27559;DHT22;15002;52.028;5.670;2022-08-06T04:33:51;15.60;98.10
27559;DHT22;15002;52.028;5.670;2022-08-06T04:36:17;15.70;98.10
27559;DHT22;15002;52.028;5.670;2022-08-06T04:38:43;15.70;97.90
27559;DHT22;15002;52.028;5.670;2022-08-06T04:41:11;15.70;98.10
27559;DHT22;15002;52.028;5.670;2022-08-06T04:43:37;15.80;98.40
27559;DHT22;15002;52.028;5.670;2022-08-06T04:46:03;15.60;98.10
27559;DHT22;15002;52.028;5.670;2022-08-06T04:48:29;15.70;98.20
27559;DHT22;15002;52.028;5.670;2022-08-06T04:50:55;15.80;98.20
27559;DHT22;15002;52.028;5.670;2022-08-06T04:53:21;15.80;98.20
27559;DHT22;15002;52.028;5.670;2022-08-06T04:55:47;15.80;98.20
27559;DHT22;15002;52.028;5.670;2022-08-06T04:58:15;15.90;98.10
27559;DHT22;15002;52.028;5.670;2022-08-06T05:00:46;16.10;97.90
27559;DHT22;15002;52.028;5.670;2022-08-06T05:03:12;16.30;97.70
27559;DHT22;15002;52.028;5.670;2022-08-06T05:08:27;16.50;97.20
27559;DHT22;15002;52.028;5.670;2022-08-06T05:11:00;16.60;97.00
27559;DHT22;15002;52.028;5.670;2022-08-06T05:13:35;16.50;97.00
27559;DHT22;15002;52.028;5.670;2022-08-06T05:16:04;16.60;96.80
27559;DHT22;15002;52.028;5.670;2022-08-06T05:18:36;16.60;96.70
27559;DHT22;15002;52.028;5.670;2022-08-06T05:21:03;16.60;96.70
27559;DHT22;15002;52.028;5.670;2022-08-06T05:23:47;16.60;96.80
27559;DHT22;15002;52.028;5.670;2022-08-06T05:26:13;16.50;96.80
27559;DHT22;15002;52.028;5.670;2022-08-06T05:28:40;16.50;96.90
27559;DHT22;15002;52.028;5.670;2022-08-06T05:31:06;16.70;96.80
27559;DHT22;15002;52.028;5.670;2022-08-06T05:33:33;16.80;96.70
27559;DHT22;15002;52.028;5.670;2022-08-06T05:36:03;16.90;96.50
27559;DHT22;15002;52.028;5.670;2022-08-06T05:38:30;17.00;96.20
27559;DHT22;15002;52.028;5.670;2022-08-06T05:40:55;17.20;96.10
27559;DHT22;15002;52.028;5.670;2022-08-06T05:43:22;17.20;96.20
27559;DHT22;15002;52.028;5.670;2022-08-06T05:45:53;17.30;96.20
27559;DHT22;15002;52.028;5.670;2022-08-06T05:48:20;17.50;96.40
27559;DHT22;15002;52.028;5.670;2022-08-06T05:50:50;17.50;96.30
27559;DHT22;15002;52.028;5.670;2022-08-06T05:53:30;17.60;95.90
27559;DHT22;15002;52.028;5.670;2022-08-06T05:56:00;17.80;95.70
27559;DHT22;15002;52.028;5.670;2022-08-06T05:58:35;17.80;95.70
27559;DHT22;15002;52.028;5.670;2022-08-06T06:01:03;17.90;95.40
27559;DHT22;15002;52.028;5.670;2022-08-06T06:03:29;18.10;95.00
27559;DHT22;15002;52.028;5.670;2022-08-06T06:05:58;18.10;94.80
27559;DHT22;15002;52.028;5.670;2022-08-06T06:08:25;18.30;94.80
27559;DHT22;15002;52.028;5.670;2022-08-06T06:10:51;18.50;94.80
27559;DHT22;15002;52.028;5.670;2022-08-06T06:13:19;18.70;94.50
27559;DHT22;15002;52.028;5.670;2022-08-06T06:15:49;19.60;93.40
27559;DHT22;15002;52.028;5.670;2022-08-06T06:23:54;20.80;91.10
27559;DHT22;15002;52.028;5.670;2022-08-06T06:38:43;21.80;87.90
27559;DHT22;15002;52.028;5.670;2022-08-06T06:41:08;22.00;87.10
27559;DHT22;15002;52.028;5.670;2022-08-06T06:43:58;22.00;87.00
27559;DHT22;15002;52.028;5.670;2022-08-06T06:46:32;22.10;85.60
27559;DHT22;15002;52.028;5.670;2022-08-06T06:49:13;22.00;87.10
27559;DHT22;15002;52.028;5.670;2022-08-06T06:51:46;22.50;86.30
27559;DHT22;15002;52.028;5.670;2022-08-06T06:54:20;23.20;84.30
27559;DHT22;15002;52.028;5.670;2022-08-06T06:56:49;23.80;81.50
27559;DHT22;15002;52.028;5.670;2022-08-06T06:59:20;24.00;80.10
27559;DHT22;15002;52.028;5.670;2022-08-06T07:01:47;24.40;79.30
27559;DHT22;15002;52.028;5.670;2022-08-06T07:04:16;24.80;77.60
27559;DHT22;15002;52.028;5.670;2022-08-06T07:06:43;24.60;77.40
27559;DHT22;15002;52.028;5.670;2022-08-06T07:09:17;24.80;76.40
27559;DHT22;15002;52.028;5.670;2022-08-06T07:11:44;24.50;76.60
27559;DHT22;15002;52.028;5.670;2022-08-06T07:14:12;24.60;76.80
27559;DHT22;15002;52.028;5.670;2022-08-06T07:16:38;24.80;76.30
27559;DHT22;15002;52.028;5.670;2022-08-06T07:19:06;24.80;75.80
27559;DHT22;15002;52.028;5.670;2022-08-06T07:21:34;24.90;75.60
27559;DHT22;15002;52.028;5.670;2022-08-06T07:24:00;25.20;74.50
27559;DHT22;15002;52.028;5.670;2022-08-06T07:26:27;25.50;74.80
27559;DHT22;15002;52.028;5.670;2022-08-06T07:28:54;25.40;73.30
27559;DHT22;15002;52.028;5.670;2022-08-06T07:31:23;25.40;73.40
27559;DHT22;15002;52.028;5.670;2022-08-06T07:33:52;25.10;73.20
27559;DHT22;15002;52.028;5.670;2022-08-06T07:36:20;25.00;73.50
27559;DHT22;15002;52.028;5.670;2022-08-06T07:38:47;24.70;73.90
27559;DHT22;15002;52.028;5.670;2022-08-06T07:41:14;24.70;74.40
27559;DHT22;15002;52.028;5.670;2022-08-06T07:43:51;25.00;73.60
27559;DHT22;15002;52.028;5.670;2022-08-06T07:46:21;25.30;73.00
27559;DHT22;15002;52.028;5.670;2022-08-06T07:49:01;25.40;73.00
27559;DHT22;15002;52.028;5.670;2022-08-06T07:51:32;25.60;72.30
27559;DHT22;15002;52.028;5.670;2022-08-06T07:54:00;25.80;70.00
27559;DHT22;15002;52.028;5.670;2022-08-06T07:56:26;25.80;71.10
27559;DHT22;15002;52.028;5.670;2022-08-06T07:58:53;25.80;71.10
27559;DHT22;15002;52.028;5.670;2022-08-06T08:01:20;25.40;71.60
27559;DHT22;15002;52.028;5.670;2022-08-06T08:03:46;24.90;70.40
27559;DHT22;15002;52.028;5.670;2022-08-06T08:06:31;25.00;71.30
27559;DHT22;15002;52.028;5.670;2022-08-06T08:09:17;25.50;69.70
27559;DHT22;15002;52.028;5.670;2022-08-06T08:11:45;25.80;70.10
27559;DHT22;15002;52.028;5.670;2022-08-06T08:14:13;25.10;68.90
27559;DHT22;15002;52.028;5.670;2022-08-06T08:16:39;24.50;73.60
27559;DHT22;15002;52.028;5.670;2022-08-06T08:19:26;24.90;69.70
27559;DHT22;15002;52.028;5.670;2022-08-06T08:22:02;24.80;70.80
27559;DHT22;15002;52.028;5.670;2022-08-06T08:24:28;25.20;69.90
27559;DHT22;15002;52.028;5.670;2022-08-06T08:26:57;25.60;68.70
27559;DHT22;15002;52.028;5.670;2022-08-06T08:29:22;25.00;69.10
27559;DHT22;15002;52.028;5.670;2022-08-06T08:31:48;24.70;70.10
27559;DHT22;15002;52.028;5.670;2022-08-06T08:34:14;24.80;71.20
27559;DHT22;15002;52.028;5.670;2022-08-06T08:36:40;25.00;70.60
27559;DHT22;15002;52.028;5.670;2022-08-06T08:39:05;25.00;70.00
27559;DHT22;15002;52.028;5.670;2022-08-06T08:41:43;24.80;69.10
27559;DHT22;15002;52.028;5.670;2022-08-06T08:44:09;24.30;70.80
27559;DHT22;15002;52.028;5.670;2022-08-06T08:46:39;24.60;70.00
27559;DHT22;15002;52.028;5.670;2022-08-06T08:49:06;25.20;69.50
27559;DHT22;15002;52.028;5.670;2022-08-06T08:51:36;25.60;67.60
27559;DHT22;15002;52.028;5.670;2022-08-06T08:54:05;26.00;67.50
27559;DHT22;15002;52.028;5.670;2022-08-06T08:56:32;26.30;67.40
27559;DHT22;15002;52.028;5.670;2022-08-06T08:58:58;26.60;67.00
27559;DHT22;15002;52.028;5.670;2022-08-06T09:01:24;27.00;64.80
27559;DHT22;15002;52.028;5.670;2022-08-06T09:03:50;27.00;63.90
27559;DHT22;15002;52.028;5.670;2022-08-06T09:06:17;27.10;62.90
27559;DHT22;15002;52.028;5.670;2022-08-06T09:08:44;26.80;63.40
27559;DHT22;15002;52.028;5.670;2022-08-06T09:11:12;26.70;64.50
27559;DHT22;15002;52.028;5.670;2022-08-06T09:13:38;26.80;63.80
27559;DHT22;15002;52.028;5.670;2022-08-06T09:16:04;26.70;62.30
27559;DHT22;15002;52.028;5.670;2022-08-06T09:18:29;26.90;63.50
27559;DHT22;15002;52.028;5.670;2022-08-06T09:20:55;27.10;63.30
27559;DHT22;15002;52.028;5.670;2022-08-06T09:23:21;27.30;60.90
27559;DHT22;15002;52.028;5.670;2022-08-06T09:25:51;27.50;61.70
27559;DHT22;15002;52.028;5.670;2022-08-06T09:28:30;27.20;60.80
27559;DHT22;15002;52.028;5.670;2022-08-06T09:31:01;26.50;61.90
27559;DHT22;15002;52.028;5.670;2022-08-06T09:33:28;26.20;63.30
27559;DHT22;15002;52.028;5.670;2022-08-06T09:36:05;26.20;64.00
27559;DHT22;15002;52.028;5.670;2022-08-06T09:38:32;26.40;64.20
27559;DHT22;15002;52.028;5.670;2022-08-06T09:41:06;26.60;65.20
27559;DHT22;15002;52.028;5.670;2022-08-06T09:43:33;26.70;65.80
27559;DHT22;15002;52.028;5.670;2022-08-06T09:45:59;26.60;65.60
27559;DHT22;15002;52.028;5.670;2022-08-06T09:48:24;26.70;65.00
27559;DHT22;15002;52.028;5.670;2022-08-06T09:50:50;26.40;65.70
27559;DHT22;15002;52.028;5.670;2022-08-06T09:53:16;26.20;65.50
27559;DHT22;15002;52.028;5.670;2022-08-06T09:55:43;26.10;65.80
27559;DHT22;15002;52.028;5.670;2022-08-06T09:58:09;25.50;65.00
27559;DHT22;15002;52.028;5.670;2022-08-06T10:00:36;25.40;65.60
27559;DHT22;15002;52.028;5.670;2022-08-06T10:03:05;25.50;65.20
27559;DHT22;15002;52.028;5.670;2022-08-06T10:05:32;25.70;63.70
27559;DHT22;15002;52.028;5.670;2022-08-06T10:08:12;25.70;62.10
27559;DHT22;15002;52.028;5.670;2022-08-06T10:10:44;25.60;64.00
27559;DHT22;15002;52.028;5.670;2022-08-06T10:13:15;25.70;64.70
27559;DHT22;15002;52.028;5.670;2022-08-06T10:15:42;26.10;63.40
27559;DHT22;15002;52.028;5.670;2022-08-06T10:18:20;26.10;61.70
27559;DHT22;15002;52.028;5.670;2022-08-06T10:21:05;26.10;60.50
27559;DHT22;15002;52.028;5.670;2022-08-06T10:23:33;25.70;62.70
27559;DHT22;15002;52.028;5.670;2022-08-06T10:26:02;25.60;60.80
27559;DHT22;15002;52.028;5.670;2022-08-06T10:28:29;25.60;62.80
27559;DHT22;15002;52.028;5.670;2022-08-06T10:30:57;25.70;62.60
27559;DHT22;15002;52.028;5.670;2022-08-06T10:33:24;26.10;61.30
27559;DHT22;15002;52.028;5.670;2022-08-06T10:35:59;26.00;59.30
27559;DHT22;15002;52.028;5.670;2022-08-06T10:38:26;25.90;60.70
27559;DHT22;15002;52.028;5.670;2022-08-06T10:40:53;26.00;63.40
27559;DHT22;15002;52.028;5.670;2022-08-06T10:43:21;26.10;61.40
27559;DHT22;15002;52.028;5.670;2022-08-06T10:45:47;26.20;62.10
27559;DHT22;15002;52.028;5.670;2022-08-06T10:48:15;26.40;61.50
27559;DHT22;15002;52.028;5.670;2022-08-06T10:50:42;26.50;57.70
27559;DHT22;15002;52.028;5.670;2022-08-06T10:53:08;26.70;58.20
27559;DHT22;15002;52.028;5.670;2022-08-06T10:55:34;26.60;57.80
27559;DHT22;15002;52.028;5.670;2022-08-06T10:58:00;26.50;58.20
27559;DHT22;15002;52.028;5.670;2022-08-06T11:00:26;26.90;61.20
27559;DHT22;15002;52.028;5.670;2022-08-06T11:05:35;27.00;61.70
27559;DHT22;15002;52.028;5.670;2022-08-06T11:09:01;26.80;59.60
27559;DHT22;15002;52.028;5.670;2022-08-06T11:14:21;26.90;59.40
27559;DHT22;15002;52.028;5.670;2022-08-06T11:16:57;26.80;58.30
27559;DHT22;15002;52.028;5.670;2022-08-06T11:19:47;26.50;59.80
27559;DHT22;15002;52.028;5.670;2022-08-06T11:22:33;26.40;59.00
27559;DHT22;15002;52.028;5.670;2022-08-06T11:25:00;26.40;58.80
27559;DHT22;15002;52.028;5.670;2022-08-06T11:27:51;26.60;58.50
27559;DHT22;15002;52.028;5.670;2022-08-06T11:30:17;26.70;58.20
27559;DHT22;15002;52.028;5.670;2022-08-06T11:32:48;26.20;57.70
27559;DHT22;15002;52.028;5.670;2022-08-06T11:38:05;25.80;58.90
27559;DHT22;15002;52.028;5.670;2022-08-06T11:40:59;25.60;61.00
27559;DHT22;15002;52.028;5.670;2022-08-06T11:43:47;25.50;62.30
27559;DHT22;15002;52.028;5.670;2022-08-06T11:46:26;25.90;61.00
27559;DHT22;15002;52.028;5.670;2022-08-06T11:59:36;25.50;60.30
27559;DHT22;15002;52.028;5.670;2022-08-06T12:02:07;25.60;60.40
27559;DHT22;15002;52.028;5.670;2022-08-06T12:09:42;26.20;59.50
27559;DHT22;15002;52.028;5.670;2022-08-06T12:14:51;25.70;58.60
27559;DHT22;15002;52.028;5.670;2022-08-06T12:17:24;25.50;58.60
27559;DHT22;15002;52.028;5.670;2022-08-06T12:19:53;25.40;59.60
27559;DHT22;15002;52.028;5.670;2022-08-06T12:22:21;25.70;59.50
27559;DHT22;15002;52.028;5.670;2022-08-06T12:24:55;25.80;59.70
27559;DHT22;15002;52.028;5.670;2022-08-06T12:27:23;26.10;59.40
27559;DHT22;15002;52.028;5.670;2022-08-06T12:29:55;26.50;57.50
27559;DHT22;15002;52.028;5.670;2022-08-06T12:32:26;26.60;57.50
27559;DHT22;15002;52.028;5.670;2022-08-06T12:34:53;26.50;56.10
27559;DHT22;15002;52.028;5.670;2022-08-06T12:37:19;26.40;57.60
27559;DHT22;15002;52.028;5.670;2022-08-06T12:39:46;26.70;57.50
27559;DHT22;15002;52.028;5.670;2022-08-06T12:42:44;26.80;56.90
27559;DHT22;15002;52.028;5.670;2022-08-06T12:45:10;26.70;57.40
27559;DHT22;15002;52.028;5.670;2022-08-06T12:47:36;26.90;56.90
27559;DHT22;15002;52.028;5.670;2022-08-06T12:50:18;26.60;56.30
27559;DHT22;15002;52.028;5.670;2022-08-06T12:52:55;26.80;57.60
27559;DHT22;15002;52.028;5.670;2022-08-06T12:55:26;26.60;55.70
27559;DHT22;15002;52.028;5.670;2022-08-06T12:57:54;26.20;55.70
27559;DHT22;15002;52.028;5.670;2022-08-06T13:00:20;26.40;56.60
27559;DHT22;15002;52.028;5.670;2022-08-06T13:02:48;26.60;57.30
27559;DHT22;15002;52.028;5.670;2022-08-06T13:05:14;26.50;56.50
27559;DHT22;15002;52.028;5.670;2022-08-06T13:07:41;26.60;58.60
27559;DHT22;15002;52.028;5.670;2022-08-06T13:10:11;26.70;57.70
27559;DHT22;15002;52.028;5.670;2022-08-06T13:12:37;27.00;57.40
27559;DHT22;15002;52.028;5.670;2022-08-06T13:15:15;27.00;57.00
27559;DHT22;15002;52.028;5.670;2022-08-06T13:17:41;26.80;56.80
27559;DHT22;15002;52.028;5.670;2022-08-06T13:20:07;26.70;56.00
27559;DHT22;15002;52.028;5.670;2022-08-06T13:22:49;26.20;57.70
27559;DHT22;15002;52.028;5.670;2022-08-06T13:25:16;26.20;57.10
27559;DHT22;15002;52.028;5.670;2022-08-06T13:27:42;26.30;58.20
27559;DHT22;15002;52.028;5.670;2022-08-06T13:30:09;25.80;56.70
27559;DHT22;15002;52.028;5.670;2022-08-06T13:32:35;25.90;57.00
27559;DHT22;15002;52.028;5.670;2022-08-06T13:35:06;26.30;56.80
27559;DHT22;15002;52.028;5.670;2022-08-06T13:37:47;26.10;55.70
27559;DHT22;15002;52.028;5.670;2022-08-06T13:40:16;26.10;56.60
27559;DHT22;15002;52.028;5.670;2022-08-06T13:42:53;25.90;57.20
27559;DHT22;15002;52.028;5.670;2022-08-06T13:45:24;26.20;59.10
27559;DHT22;15002;52.028;5.670;2022-08-06T13:48:01;26.20;59.70
27559;DHT22;15002;52.028;5.670;2022-08-06T13:50:27;26.00;61.10
27559;DHT22;15002;52.028;5.670;2022-08-06T13:52:52;26.20;60.50
27559;DHT22;15002;52.028;5.670;2022-08-06T13:55:22;26.20;60.90
27559;DHT22;15002;52.028;5.670;2022-08-06T13:57:49;26.10;60.20
27559;DHT22;15002;52.028;5.670;2022-08-06T14:00:15;25.60;59.80
27559;DHT22;15002;52.028;5.670;2022-08-06T14:02:41;25.70;59.20
27559;DHT22;15002;52.028;5.670;2022-08-06T14:05:07;25.90;59.90
27559;DHT22;15002;52.028;5.670;2022-08-06T14:07:33;25.70;57.80
27559;DHT22;15002;52.028;5.670;2022-08-06T14:09:58;25.40;57.40
27559;DHT22;15002;52.028;5.670;2022-08-06T14:12:24;25.30;57.40
27559;DHT22;15002;52.028;5.670;2022-08-06T14:14:50;25.40;58.30
27559;DHT22;15002;52.028;5.670;2022-08-06T14:17:15;25.70;59.30
27559;DHT22;15002;52.028;5.670;2022-08-06T14:19:41;25.50;58.50
27559;DHT22;15002;52.028;5.670;2022-08-06T14:22:08;25.40;58.10
27559;DHT22;15002;52.028;5.670;2022-08-06T14:24:35;25.50;58.80
27559;DHT22;15002;52.028;5.670;2022-08-06T14:27:00;25.60;57.70
27559;DHT22;15002;52.028;5.670;2022-08-06T14:29:26;25.60;58.30
27559;DHT22;15002;52.028;5.670;2022-08-06T14:31:52;26.00;58.40
27559;DHT22;15002;52.028;5.670;2022-08-06T14:34:17;26.10;59.20
27559;DHT22;15002;52.028;5.670;2022-08-06T14:36:43;25.90;59.10
27559;DHT22;15002;52.028;5.670;2022-08-06T14:39:09;26.30;61.10
27559;DHT22;15002;52.028;5.670;2022-08-06T14:41:37;26.40;60.00
27559;DHT22;15002;52.028;5.670;2022-08-06T14:44:22;26.60;60.00
27559;DHT22;15002;52.028;5.670;2022-08-06T14:47:05;26.40;58.90
27559;DHT22;15002;52.028;5.670;2022-08-06T14:49:34;26.70;59.50
27559;DHT22;15002;52.028;5.670;2022-08-06T14:51:59;26.50;58.50
27559;DHT22;15002;52.028;5.670;2022-08-06T14:54:25;26.70;59.40
27559;DHT22;15002;52.028;5.670;2022-08-06T14:56:51;26.80;59.20
27559;DHT22;15002;52.028;5.670;2022-08-06T14:59:17;26.60;59.60
27559;DHT22;15002;52.028;5.670;2022-08-06T15:01:43;26.60;58.70
27559;DHT22;15002;52.028;5.670;2022-08-06T15:04:09;26.60;58.80
27559;DHT22;15002;52.028;5.670;2022-08-06T15:06:35;26.50;59.80
27559;DHT22;15002;52.028;5.670;2022-08-06T15:09:01;26.60;60.00
27559;DHT22;15002;52.028;5.670;2022-08-06T15:11:26;26.80;58.70
27559;DHT22;15002;52.028;5.670;2022-08-06T15:13:52;26.40;59.30
27559;DHT22;15002;52.028;5.670;2022-08-06T15:16:18;26.90;59.00
27559;DHT22;15002;52.028;5.670;2022-08-06T15:18:43;26.80;57.00
27559;DHT22;15002;52.028;5.670;2022-08-06T15:21:09;26.50;57.90
27559;DHT22;15002;52.028;5.670;2022-08-06T15:23:35;26.60;58.90
27559;DHT22;15002;52.028;5.670;2022-08-06T15:26:01;26.70;58.90
27559;DHT22;15002;52.028;5.670;2022-08-06T15:28:26;27.00;57.80
27559;DHT22;15002;52.028;5.670;2022-08-06T15:30:52;27.00;56.50
27559;DHT22;15002;52.028;5.670;2022-08-06T15:33:18;26.60;57.40
27559;DHT22;15002;52.028;5.670;2022-08-06T15:35:44;26.70;58.30
27559;DHT22;15002;52.028;5.670;2022-08-06T15:38:11;26.60;58.20
27559;DHT22;15002;52.028;5.670;2022-08-06T15:40:38;26.50;58.00
27559;DHT22;15002;52.028;5.670;2022-08-06T15:43:04;26.70;57.20
27559;DHT22;15002;52.028;5.670;2022-08-06T15:45:29;26.40;55.90
27559;DHT22;15002;52.028;5.670;2022-08-06T15:47:57;26.20;56.10
27559;DHT22;15002;52.028;5.670;2022-08-06T15:50:24;26.30;56.50
27559;DHT22;15002;52.028;5.670;2022-08-06T15:52:50;26.00;56.60
27559;DHT22;15002;52.028;5.670;2022-08-06T15:55:15;26.50;59.10
27559;DHT22;15002;52.028;5.670;2022-08-06T15:57:41;26.40;58.80
27559;DHT22;15002;52.028;5.670;2022-08-06T16:00:07;26.70;58.60
27559;DHT22;15002;52.028;5.670;2022-08-06T16:02:33;26.70;58.20
27559;DHT22;15002;52.028;5.670;2022-08-06T16:04:59;26.70;58.30
27559;DHT22;15002;52.028;5.670;2022-08-06T16:07:24;26.80;58.40
27559;DHT22;15002;52.028;5.670;2022-08-06T16:09:50;26.50;58.40
27559;DHT22;15002;52.028;5.670;2022-08-06T16:12:16;26.30;57.90
27559;DHT22;15002;52.028;5.670;2022-08-06T16:17:17;25.80;57.70
27559;DHT22;15002;52.028;5.670;2022-08-06T16:19:42;26.10;58.40
27559;DHT22;15002;52.028;5.670;2022-08-06T16:22:08;26.00;58.50
27559;DHT22;15002;52.028;5.670;2022-08-06T16:24:34;26.10;57.10
27559;DHT22;15002;52.028;5.670;2022-08-06T16:26:59;25.70;58.90
27559;DHT22;15002;52.028;5.670;2022-08-06T16:29:30;25.60;58.70
27559;DHT22;15002;52.028;5.670;2022-08-06T16:31:56;25.70;60.30
27559;DHT22;15002;52.028;5.670;2022-08-06T16:34:22;25.70;59.30
27559;DHT22;15002;52.028;5.670;2022-08-06T16:36:48;26.10;59.40
27559;DHT22;15002;52.028;5.670;2022-08-06T16:39:14;25.70;58.80